createdAt,value
2019-04-28T00:01:13.683Z,37.40
2019-04-28T00:02:50.801Z,37.20
2019-04-28T00:04:27.274Z,35.40
2019-04-28T00:06:04.089Z,36.43
2019-04-28T00:07:41.122Z,35.47
2019-04-28T00:09:18.423Z,37.67
2019-04-28T00:10:55.236Z,36.00
2019-04-28T00:12:31.841Z,36.13
2019-04-28T00:14:08.611Z,35.50
2019-04-28T00:15:45.393Z,33.83
2019-04-28T00:17:21.739Z,35.43
2019-04-28T00:18:58.551Z,35.37
2019-04-28T00:20:41.436Z,34.10
2019-04-28T00:22:22.120Z,34.10
2019-04-28T00:24:12.176Z,34.77
2019-04-28T00:26:01.465Z,34.03
2019-04-28T00:27:37.660Z,33.20
2019-04-28T00:29:14.028Z,32.33
2019-04-28T00:30:51.705Z,30.07
2019-04-28T00:32:28.223Z,31.50
2019-04-28T00:34:04.893Z,29.67
2019-04-28T00:35:41.812Z,29.23
2019-04-28T00:37:23.075Z,28.47
2019-04-28T00:39:01.370Z,28.50
2019-04-28T00:40:38.048Z,27.17
2019-04-28T00:42:14.620Z,26.97
2019-04-28T00:43:51.974Z,27.53
2019-04-28T00:45:28.804Z,26.93
2019-04-28T00:47:05.639Z,25.63
2019-04-28T00:48:42.113Z,25.77
2019-04-28T00:50:18.620Z,24.87
2019-04-28T00:51:55.434Z,25.60
2019-04-28T00:53:32.363Z,26.13
2019-04-28T00:55:10.661Z,26.27
2019-04-28T00:56:47.281Z,26.23
2019-04-28T00:58:23.573Z,26.80
2019-04-28T01:00:02.196Z,26.63
2019-04-28T01:01:42.798Z,26.87
2019-04-28T01:03:19.144Z,26.17
2019-04-28T01:04:55.516Z,27.10
2019-04-28T01:06:32.208Z,26.40
2019-04-28T01:08:10.889Z,25.80
2019-04-28T01:09:47.203Z,26.53
2019-04-28T01:11:23.857Z,26.90
2019-04-28T01:13:01.971Z,27.33
2019-04-28T01:14:38.537Z,26.73
2019-04-28T01:16:16.833Z,25.70
2019-04-28T01:17:55.248Z,26.60
2019-04-28T01:19:49.870Z,27.03
2019-04-28T01:21:30.003Z,26.17
2019-04-28T01:23:06.704Z,27.00
2019-04-28T01:24:43.514Z,26.30
2019-04-28T01:26:20.247Z,27.73
2019-04-28T01:27:56.728Z,26.63
2019-04-28T01:29:34.160Z,28.07
2019-04-28T01:31:10.206Z,28.47
2019-04-28T01:32:54.829Z,28.17
2019-04-28T01:34:31.670Z,26.80
2019-04-28T01:36:08.110Z,26.43
2019-04-28T01:37:44.813Z,27.20
2019-04-28T01:39:21.422Z,26.70
2019-04-28T01:40:59.764Z,27.70
2019-04-28T01:42:36.423Z,27.33
2019-04-28T01:44:13.855Z,27.70
2019-04-28T01:45:50.615Z,28.60
2019-04-28T01:47:27.456Z,28.13
2019-04-28T01:49:03.781Z,27.50
2019-04-28T01:50:40.221Z,26.73
2019-04-28T01:52:16.500Z,27.90
2019-04-28T01:53:52.877Z,27.97
2019-04-28T01:55:29.674Z,27.43
2019-04-28T01:57:06.404Z,26.77
2019-04-28T01:58:42.861Z,28.80
2019-04-28T02:00:25.357Z,27.10
2019-04-28T02:02:00.149Z,26.93
2019-04-28T02:03:37.353Z,28.57
2019-04-28T02:05:15.366Z,28.60
2019-04-28T02:06:51.986Z,27.83
2019-04-28T02:08:30.241Z,28.13
2019-04-28T02:10:07.804Z,27.77
2019-04-28T02:11:44.514Z,28.97
2019-04-28T02:13:21.097Z,28.77
2019-04-28T02:14:57.840Z,27.90
2019-04-28T02:16:35.063Z,27.53
2019-04-28T02:18:11.442Z,27.30
2019-04-28T02:19:47.805Z,28.57
2019-04-28T02:21:29.567Z,28.93
2019-04-28T02:23:07.161Z,28.27
2019-04-28T02:24:43.458Z,29.07
2019-04-28T02:26:20.002Z,29.10
2019-04-28T02:27:57.168Z,29.03
2019-04-28T02:29:34.428Z,29.03
2019-04-28T02:31:11.600Z,28.17
2019-04-28T02:32:51.613Z,28.17
2019-04-28T02:34:30.773Z,28.57
2019-04-28T02:36:08.705Z,26.60
2019-04-28T02:37:44.220Z,27.70
2019-04-28T02:39:21.929Z,28.43
2019-04-28T02:41:00.152Z,27.27
2019-04-28T02:42:36.500Z,28.73
2019-04-28T02:44:13.244Z,27.30
2019-04-28T02:45:53.446Z,28.30
2019-04-28T02:47:33.724Z,28.80
2019-04-28T02:49:10.274Z,27.90
2019-04-28T02:50:54.511Z,26.63
2019-04-28T02:52:51.622Z,27.40
2019-04-28T02:54:27.625Z,27.90
2019-04-28T02:56:04.028Z,27.07
2019-04-28T02:57:41.422Z,28.13
2019-04-28T02:59:20.753Z,28.10
2019-04-28T03:01:06.325Z,27.23
2019-04-28T03:02:34.113Z,27.47
2019-04-28T03:04:12.439Z,29.60
2019-04-28T03:05:51.203Z,29.97
2019-04-28T03:07:26.874Z,29.77
2019-04-28T03:09:03.554Z,30.93
2019-04-28T03:10:40.950Z,31.67
2019-04-28T03:12:18.009Z,30.77
2019-04-28T03:13:54.629Z,31.57
2019-04-28T03:15:30.970Z,32.47
2019-04-28T03:17:07.681Z,31.07
2019-04-28T03:18:44.422Z,30.93
2019-04-28T03:20:21.353Z,30.53
2019-04-28T03:21:58.017Z,31.93
2019-04-28T03:23:34.788Z,31.90
2019-04-28T03:25:20.392Z,30.73
2019-04-28T03:27:00.621Z,33.33
2019-04-28T03:28:41.201Z,33.13
2019-04-28T03:30:35.021Z,32.03
2019-04-28T03:32:32.641Z,30.87
2019-04-28T03:33:55.993Z,32.47
2019-04-28T03:35:33.063Z,32.23
2019-04-28T03:37:11.312Z,33.70
2019-04-28T03:38:50.938Z,32.33
2019-04-28T03:40:26.003Z,33.77
2019-04-28T03:42:02.340Z,34.30
2019-04-28T03:43:40.640Z,35.20
2019-04-28T03:45:21.127Z,35.30
2019-04-28T03:47:02.747Z,34.47
2019-04-28T03:48:36.572Z,37.40
2019-04-28T03:50:13.190Z,35.80
2019-04-28T03:51:50.652Z,36.07
2019-04-28T03:53:27.212Z,34.73
2019-04-28T03:55:04.209Z,37.60
2019-04-28T03:56:41.383Z,36.33
2019-04-28T03:58:23.697Z,36.00
2019-04-28T03:59:56.025Z,37.67
2019-04-28T04:01:32.313Z,37.27
2019-04-28T04:03:10.917Z,36.73
2019-04-28T04:04:46.822Z,36.63
2019-04-28T04:06:23.155Z,35.57
2019-04-28T04:08:00.860Z,36.40
2019-04-28T04:09:44.836Z,37.23
2019-04-28T04:11:21.284Z,36.17
2019-04-28T04:13:00.851Z,37.03
2019-04-28T04:14:57.249Z,36.30
2019-04-28T04:16:53.595Z,37.23
2019-04-28T04:18:34.310Z,33.93
2019-04-28T04:20:12.221Z,35.20
2019-04-28T04:21:50.660Z,34.47
2019-04-28T04:23:27.023Z,34.73
2019-04-28T04:25:03.301Z,34.70
2019-04-28T04:26:40.921Z,34.37
2019-04-28T04:28:20.256Z,35.90
2019-04-28T04:29:56.067Z,35.97
2019-04-28T04:31:32.327Z,33.33
2019-04-28T04:33:11.187Z,33.60
2019-04-28T04:34:47.163Z,33.60
2019-04-28T04:36:23.494Z,33.87
2019-04-28T04:38:00.533Z,35.07
2019-04-28T04:39:37.117Z,35.37
2019-04-28T04:41:13.532Z,35.20
2019-04-28T04:42:50.246Z,35.53
2019-04-28T04:44:26.798Z,35.53
2019-04-28T04:46:14.624Z,36.23
2019-04-28T04:47:51.164Z,36.53
2019-04-28T04:49:27.442Z,36.37
2019-04-28T04:51:03.804Z,34.77
2019-04-28T04:52:40.470Z,32.23
2019-04-28T04:54:20.257Z,34.80
2019-04-28T04:55:56.326Z,35.43
2019-04-28T04:57:32.775Z,32.57
2019-04-28T04:59:10.214Z,31.73
2019-04-28T05:00:51.550Z,34.20
2019-04-28T05:02:33.046Z,34.43
2019-04-28T05:04:22.012Z,35.43
2019-04-28T05:06:00.134Z,32.87
2019-04-28T05:07:36.563Z,35.13
2019-04-28T05:09:13.073Z,33.80
2019-04-28T05:10:50.424Z,34.70
2019-04-28T05:12:27.056Z,34.07
2019-04-28T05:14:03.790Z,32.27
2019-04-28T05:15:40.225Z,33.13
2019-04-28T05:17:16.860Z,35.53
2019-04-28T05:18:53.369Z,32.67
2019-04-28T05:20:30.324Z,31.97
2019-04-28T05:22:07.469Z,29.53
2019-04-28T05:23:52.777Z,31.50
2019-04-28T05:25:32.550Z,31.77
2019-04-28T05:27:09.723Z,30.93
2019-04-28T05:28:51.533Z,30.30
2019-04-28T05:30:24.955Z,30.37
2019-04-28T05:32:03.290Z,29.70
2019-04-28T05:33:42.046Z,30.47
2019-04-28T05:35:22.016Z,29.93
2019-04-28T05:36:56.927Z,29.13
2019-04-28T05:38:33.665Z,29.73
2019-04-28T05:40:10.604Z,30.90
2019-04-28T05:41:47.459Z,29.73
2019-04-28T05:43:23.826Z,31.23
2019-04-28T05:45:00.466Z,30.17
2019-04-28T05:46:37.175Z,30.60
2019-04-28T05:48:13.855Z,30.70
2019-04-28T05:49:51.693Z,28.40
2019-04-28T05:51:29.952Z,29.40
2019-04-28T05:53:21.730Z,28.70
2019-04-28T05:55:07.886Z,29.23
2019-04-28T05:56:52.398Z,26.60
2019-04-28T05:58:30.561Z,26.27
2019-04-28T06:00:20.515Z,25.93
2019-04-28T06:02:00.577Z,28.33
2019-04-28T06:03:37.478Z,25.93
2019-04-28T06:05:14.314Z,27.33
2019-04-28T06:07:01.484Z,27.40
2019-04-28T06:08:50.801Z,29.87
2019-04-28T06:10:26.885Z,27.37
2019-04-28T06:12:05.328Z,26.60
2019-04-28T06:13:41.696Z,27.33
2019-04-28T06:15:18.060Z,28.33
2019-04-28T06:16:55.570Z,26.93
2019-04-28T06:18:31.897Z,25.97
2019-04-28T06:20:10.155Z,23.87
2019-04-28T06:21:47.987Z,24.27
2019-04-28T06:23:24.241Z,24.30
2019-04-28T06:25:00.677Z,23.77
2019-04-28T06:26:37.133Z,24.30
2019-04-28T06:28:13.570Z,24.17
2019-04-28T06:29:49.936Z,22.90
2019-04-28T06:31:26.300Z,24.50
2019-04-28T06:33:08.096Z,23.03
2019-04-28T06:34:41.335Z,23.53
2019-04-28T06:36:17.781Z,24.37
2019-04-28T06:37:54.588Z,24.57
2019-04-28T06:39:31.152Z,24.50
2019-04-28T06:41:07.697Z,23.97
2019-04-28T06:42:45.067Z,25.00
2019-04-28T06:44:21.491Z,23.07
2019-04-28T06:45:57.962Z,23.33
2019-04-28T06:47:34.333Z,23.37
2019-04-28T06:49:11.377Z,23.10
2019-04-28T06:50:47.894Z,23.30
2019-04-28T06:52:24.633Z,23.10
2019-04-28T06:54:01.030Z,23.93
2019-04-28T06:55:37.732Z,23.90
2019-04-28T06:57:14.103Z,23.70
2019-04-28T06:58:58.800Z,25.60
2019-04-28T07:00:28.904Z,24.33
2019-04-28T07:02:05.417Z,22.87
2019-04-28T07:03:42.084Z,24.27
2019-04-28T07:05:18.842Z,24.07
2019-04-28T07:06:55.483Z,24.17
2019-04-28T07:08:31.915Z,22.77
2019-04-28T07:10:09.160Z,23.00
2019-04-28T07:11:45.800Z,25.37
2019-04-28T07:13:22.281Z,23.57
2019-04-28T07:14:59.029Z,23.47
2019-04-28T07:16:35.461Z,23.90
2019-04-28T07:18:12.182Z,23.63
2019-04-28T07:19:50.196Z,24.23
2019-04-28T07:21:34.281Z,24.33
2019-04-28T07:23:11.795Z,23.13
2019-04-28T07:24:48.534Z,23.40
2019-04-28T07:26:25.080Z,24.33
2019-04-28T07:28:01.824Z,24.90
2019-04-28T07:29:38.623Z,24.53
2019-04-28T07:31:15.745Z,23.17
2019-04-28T07:32:52.130Z,22.97
2019-04-28T07:34:28.473Z,21.47
2019-04-28T07:36:05.020Z,20.83
2019-04-28T07:37:41.526Z,21.33
2019-04-28T07:39:18.165Z,19.67
2019-04-28T07:40:55.094Z,19.90
2019-04-28T07:42:31.788Z,19.13
2019-04-28T07:44:08.219Z,18.20
2019-04-28T07:45:45.067Z,18.90
2019-04-28T07:47:23.217Z,18.00
2019-04-28T07:48:59.570Z,18.90
2019-04-28T07:50:36.942Z,19.17
2019-04-28T07:52:24.517Z,19.03
2019-04-28T07:54:04.843Z,19.77
2019-04-28T07:55:41.093Z,20.60
2019-04-28T07:57:17.551Z,19.83
2019-04-28T07:58:53.350Z,20.37
2019-04-28T08:00:31.461Z,21.80
2019-04-28T08:02:07.400Z,22.00
2019-04-28T08:03:49.820Z,21.87
2019-04-28T08:05:22.363Z,21.07
2019-04-28T08:06:58.743Z,23.20
2019-04-28T08:08:35.454Z,21.67
2019-04-28T08:10:12.255Z,21.50
2019-04-28T08:11:48.858Z,23.70
2019-04-28T08:13:25.311Z,23.37
2019-04-28T08:15:01.610Z,24.43
2019-04-28T08:16:38.298Z,23.13
2019-04-28T08:18:14.650Z,23.83
2019-04-28T08:19:52.014Z,22.23
2019-04-28T08:21:28.486Z,23.10
2019-04-28T08:23:05.324Z,23.53
2019-04-28T08:24:41.606Z,24.73
2019-04-28T08:26:18.157Z,25.50
2019-04-28T08:27:54.573Z,25.80
2019-04-28T08:29:30.874Z,25.50
2019-04-28T08:31:08.761Z,25.00
2019-04-28T08:33:02.167Z,25.57
2019-04-28T08:34:38.534Z,25.73
2019-04-28T08:36:14.879Z,25.53
2019-04-28T08:37:51.353Z,25.47
2019-04-28T08:39:28.035Z,26.80
2019-04-28T08:41:03.900Z,25.03
2019-04-28T08:42:40.548Z,24.03
2019-04-28T08:44:16.945Z,23.00
2019-04-28T08:45:53.756Z,24.23
2019-04-28T08:47:30.123Z,24.50
2019-04-28T08:49:06.532Z,24.27
2019-04-28T08:50:43.205Z,26.10
2019-04-28T08:52:19.641Z,25.27
2019-04-28T08:53:57.251Z,26.07
2019-04-28T08:55:34.158Z,24.90
2019-04-28T08:57:10.869Z,25.20
2019-04-28T08:58:47.645Z,26.03
2019-04-28T09:00:24.682Z,27.73
2019-04-28T09:02:01.300Z,28.67
2019-04-28T09:03:38.113Z,28.57
2019-04-28T09:05:16.448Z,28.90
2019-04-28T09:06:52.916Z,28.90
2019-04-28T09:08:29.613Z,30.47
2019-04-28T09:10:08.001Z,29.57
2019-04-28T09:11:44.760Z,28.87
2019-04-28T09:13:22.212Z,27.03
2019-04-28T09:14:58.641Z,27.17
2019-04-28T09:16:35.452Z,27.30
2019-04-28T09:18:13.008Z,26.87
2019-04-28T09:19:49.641Z,28.47
2019-04-28T09:21:25.994Z,28.33
2019-04-28T09:23:02.743Z,28.03
2019-04-28T09:24:39.252Z,28.67
2019-04-28T09:26:15.791Z,27.70
2019-04-28T09:27:52.233Z,29.20
2019-04-28T09:29:29.057Z,28.20
2019-04-28T09:31:05.637Z,27.57
2019-04-28T09:32:42.047Z,28.10
2019-04-28T09:34:28.136Z,27.80
2019-04-28T09:35:57.110Z,27.20
2019-04-28T09:37:33.673Z,27.63
2019-04-28T09:39:12.160Z,28.23
2019-04-28T09:40:48.777Z,27.73
2019-04-28T09:42:30.831Z,27.07
2019-04-28T09:44:20.512Z,26.23
2019-04-28T09:45:58.792Z,25.80
2019-04-28T09:47:36.227Z,25.60
2019-04-28T09:49:12.973Z,25.47
2019-04-28T09:50:49.695Z,24.27
2019-04-28T09:52:26.408Z,23.30
2019-04-28T09:54:03.152Z,23.93
2019-04-28T09:55:39.720Z,23.67
2019-04-28T09:57:16.553Z,24.50
2019-04-28T09:58:53.232Z,25.63
2019-04-28T10:00:30.055Z,24.30
2019-04-28T10:02:06.072Z,24.20
2019-04-28T10:03:42.744Z,24.20
2019-04-28T10:05:19.119Z,22.40
2019-04-28T10:06:55.836Z,22.63
2019-04-28T10:08:32.282Z,22.53
2019-04-28T10:10:10.375Z,21.27
2019-04-28T10:11:47.116Z,22.27
2019-04-28T10:13:23.716Z,24.13
2019-04-28T10:15:00.473Z,24.60
2019-04-28T10:16:37.181Z,23.53
2019-04-28T10:18:14.691Z,22.97
2019-04-28T10:19:52.726Z,23.43
2019-04-28T10:21:29.477Z,22.70
2019-04-28T10:23:05.998Z,23.30
2019-04-28T10:24:42.562Z,23.47
2019-04-28T10:26:19.081Z,24.73
2019-04-28T10:27:55.780Z,23.93
2019-04-28T10:29:33.052Z,25.23
2019-04-28T10:31:10.094Z,24.27
2019-04-28T10:32:47.527Z,25.13
2019-04-28T10:34:24.325Z,26.00
2019-04-28T10:36:01.755Z,25.53
2019-04-28T10:37:38.675Z,26.17
2019-04-28T10:39:16.994Z,25.80
2019-04-28T10:41:04.639Z,25.70
2019-04-28T10:42:41.397Z,27.27
2019-04-28T10:44:18.339Z,25.07
2019-04-28T10:45:55.035Z,25.43
2019-04-28T10:47:32.476Z,25.73
2019-04-28T10:49:09.213Z,27.60
2019-04-28T10:50:45.857Z,26.67
2019-04-28T10:52:22.369Z,26.67
2019-04-28T10:53:58.820Z,27.53
2019-04-28T10:55:35.551Z,27.23
2019-04-28T10:57:13.953Z,27.53
2019-04-28T10:58:52.360Z,28.20
2019-04-28T11:00:30.611Z,29.20
2019-04-28T11:02:07.153Z,29.47
2019-04-28T11:03:46.501Z,28.80
2019-04-28T11:05:24.935Z,30.60
2019-04-28T11:07:01.697Z,31.87
2019-04-28T11:08:42.563Z,31.20
2019-04-28T11:10:22.329Z,33.00
2019-04-28T11:11:59.230Z,30.93
2019-04-28T11:13:36.768Z,30.97
2019-04-28T11:15:34.377Z,33.77
2019-04-28T11:17:11.405Z,32.33
2019-04-28T11:20:21.274Z,32.90
2019-04-28T11:21:57.917Z,33.13
2019-04-28T11:23:34.562Z,33.50
2019-04-28T11:25:11.674Z,35.73
2019-04-28T11:26:48.316Z,36.13
2019-04-28T11:28:24.986Z,35.63
2019-04-28T11:30:01.349Z,37.17
2019-04-28T11:31:38.159Z,35.90
2019-04-28T11:33:20.136Z,35.20
2019-04-28T11:34:58.342Z,36.20
2019-04-28T11:36:35.234Z,36.90
2019-04-28T11:38:11.847Z,36.27
2019-04-28T11:39:48.523Z,38.17
2019-04-28T11:41:25.059Z,38.57
2019-04-28T11:43:01.492Z,35.97
2019-04-28T11:44:39.021Z,37.90
2019-04-28T11:46:17.105Z,38.70
2019-04-28T11:47:53.835Z,38.20
2019-04-28T11:49:30.246Z,37.80
2019-04-28T11:51:08.366Z,37.40
2019-04-28T11:52:45.204Z,38.80
2019-04-28T11:54:24.075Z,38.07
2019-04-28T11:56:00.075Z,39.60
2019-04-28T11:57:36.625Z,39.40
2019-04-28T11:59:13.395Z,39.80
2019-04-28T12:00:50.078Z,39.37
2019-04-28T12:02:26.618Z,39.80
2019-04-28T12:04:05.096Z,39.20
2019-04-28T12:05:43.198Z,39.50
2019-04-28T12:07:21.852Z,39.83
2019-04-28T12:09:04.307Z,40.87
2019-04-28T12:10:46.279Z,40.57
2019-04-28T12:12:36.118Z,39.17
2019-04-28T12:14:14.431Z,36.83
2019-04-28T12:15:52.489Z,39.27
2019-04-28T12:17:28.628Z,38.57
2019-04-28T12:19:09.806Z,37.40
2019-04-28T12:20:46.650Z,38.37
2019-04-28T12:22:23.393Z,37.90
2019-04-28T12:23:59.695Z,40.93
2019-04-28T12:25:36.441Z,39.53
2019-04-28T12:27:12.976Z,37.50
2019-04-28T12:28:49.817Z,40.10
2019-04-28T12:30:26.660Z,38.50
2019-04-28T12:32:03.375Z,34.70
2019-04-28T12:33:40.113Z,35.53
2019-04-28T12:35:18.429Z,36.53
2019-04-28T12:36:54.984Z,34.07
2019-04-28T12:38:32.293Z,34.10
2019-04-28T12:40:09.091Z,33.40
2019-04-28T12:41:45.933Z,30.73
2019-04-28T12:43:22.216Z,28.63
2019-04-28T12:44:58.789Z,27.70
2019-04-28T12:46:35.565Z,27.87
2019-04-28T12:48:14.474Z,28.77
2019-04-28T12:51:53.709Z,28.90
2019-04-28T12:53:30.391Z,29.60
2019-04-28T12:55:07.896Z,28.70
2019-04-28T12:56:44.487Z,31.70
2019-04-28T12:58:20.928Z,31.57
2019-04-28T13:00:14.998Z,31.93
2019-04-28T13:01:53.083Z,29.20
2019-04-28T13:03:31.150Z,30.63
2019-04-28T13:05:12.026Z,29.00
2019-04-28T13:07:05.428Z,27.60
2019-04-28T13:08:42.231Z,27.27
2019-04-28T13:10:18.646Z,27.57
2019-04-28T13:11:55.209Z,26.57
2019-04-28T13:13:31.543Z,26.07
2019-04-28T13:15:08.528Z,27.23
2019-04-28T13:16:46.613Z,26.67
2019-04-28T13:18:22.988Z,21.90
2019-04-28T13:19:59.277Z,25.93
2019-04-28T13:21:35.903Z,26.97
2019-04-28T13:23:12.271Z,26.37
2019-04-28T13:24:48.538Z,25.40
2019-04-28T13:26:24.942Z,28.40
2019-04-28T13:28:01.208Z,29.13
2019-04-28T13:29:37.860Z,27.13
2019-04-28T13:31:14.680Z,28.13
2019-04-28T13:32:51.130Z,29.77
2019-04-28T13:34:29.269Z,29.33
2019-04-28T13:36:14.742Z,28.73
2019-04-28T13:37:44.867Z,30.03
2019-04-28T13:39:28.354Z,30.40
2019-04-28T13:41:05.131Z,29.53
2019-04-28T13:42:41.665Z,31.17
2019-04-28T13:44:19.812Z,30.90
2019-04-28T13:45:56.323Z,32.30
2019-04-28T13:47:33.781Z,28.93
2019-04-28T13:49:11.971Z,30.27
2019-04-28T13:50:49.108Z,29.80
2019-04-28T13:52:25.926Z,30.23
2019-04-28T13:54:04.182Z,29.30
2019-04-28T13:55:46.906Z,25.50
2019-04-28T13:57:23.354Z,24.80
2019-04-28T13:59:01.533Z,24.27
2019-04-28T14:00:45.948Z,24.47
2019-04-28T14:02:40.379Z,24.30
2019-04-28T14:04:33.788Z,23.97
2019-04-28T14:06:11.791Z,24.93
2019-04-28T14:07:48.305Z,23.07
2019-04-28T14:09:24.679Z,25.80
2019-04-28T14:11:01.402Z,26.03
2019-04-28T14:12:37.769Z,25.93
2019-04-28T14:14:14.241Z,27.07
2019-04-28T14:15:50.679Z,26.63
2019-04-28T14:17:27.216Z,30.33
2019-04-28T14:19:03.835Z,31.90
2019-04-28T14:20:41.254Z,27.90
2019-04-28T14:22:18.288Z,29.77
2019-04-28T14:23:54.693Z,34.83
2019-04-28T14:25:31.346Z,43.20
2019-04-28T14:27:08.051Z,36.33
2019-04-28T14:28:45.368Z,33.47
2019-04-28T14:30:23.022Z,38.37
2019-04-28T14:31:59.527Z,35.30
2019-04-28T14:33:36.268Z,37.63
2019-04-28T14:35:13.044Z,34.00
2019-04-28T14:36:49.621Z,33.13
2019-04-28T14:38:26.828Z,32.40
2019-04-28T14:40:03.417Z,33.73
2019-04-28T14:41:40.169Z,33.07
2019-04-28T14:43:16.631Z,35.37
2019-04-28T14:44:53.001Z,31.47
2019-04-28T14:46:29.639Z,35.37
2019-04-28T14:48:06.268Z,35.47
2019-04-28T14:49:43.451Z,34.50
2019-04-28T14:51:20.171Z,38.87
2019-04-28T14:52:56.499Z,35.37
2019-04-28T14:54:33.210Z,63.67
2019-04-28T14:56:09.633Z,137.37
2019-04-28T14:57:46.314Z,45.53
2019-04-28T14:59:22.664Z,48.60
2019-04-28T15:01:15.643Z,39.33
2019-04-28T15:02:53.714Z,37.87
2019-04-28T15:04:32.131Z,35.80
2019-04-28T15:06:10.514Z,45.43
2019-04-28T15:08:04.068Z,38.30
2019-04-28T15:09:58.603Z,54.70
2019-04-28T15:11:36.856Z,113.33
2019-04-28T15:13:13.369Z,51.97
2019-04-28T15:14:49.784Z,59.50
2019-04-28T15:16:26.380Z,39.33
2019-04-28T15:18:03.246Z,35.23
2019-04-28T15:19:40.074Z,39.17
2019-04-28T15:21:16.676Z,45.60
2019-04-28T15:22:53.095Z,50.73
2019-04-28T15:24:29.432Z,50.87
2019-04-28T15:26:05.535Z,49.20
2019-04-28T15:27:42.268Z,40.57
2019-04-28T15:29:19.566Z,88.13
2019-04-28T15:30:55.932Z,54.17
2019-04-28T15:32:32.303Z,43.10
2019-04-28T15:34:09.239Z,46.30
2019-04-28T15:35:45.765Z,34.47
2019-04-28T15:37:22.470Z,34.43
2019-04-28T15:38:58.906Z,30.90
2019-04-28T15:40:35.675Z,33.23
2019-04-28T15:42:12.178Z,42.07
2019-04-28T15:43:48.836Z,38.43
2019-04-28T15:45:25.643Z,36.50
2019-04-28T15:47:02.104Z,40.77
2019-04-28T15:48:38.372Z,40.17
2019-04-28T15:50:15.655Z,30.50
2019-04-28T15:51:52.053Z,29.93
2019-04-28T15:53:29.348Z,31.77
2019-04-28T15:55:09.296Z,26.70
2019-04-28T15:56:46.697Z,27.37
2019-04-28T15:58:30.908Z,30.97
2019-04-28T16:00:10.479Z,28.93
2019-04-28T16:01:46.919Z,31.33
2019-04-28T16:03:23.686Z,41.50
2019-04-28T16:05:00.217Z,21.57
2019-04-28T16:06:36.980Z,26.53
2019-04-28T16:08:13.424Z,21.37
2019-04-28T16:09:50.212Z,22.77
2019-04-28T16:11:29.000Z,27.37
2019-04-28T16:13:04.930Z,24.47
2019-04-28T16:14:41.452Z,23.00
2019-04-28T16:16:18.111Z,28.23
2019-04-28T16:17:54.476Z,34.63
2019-04-28T16:19:31.189Z,27.77
2019-04-28T16:21:07.991Z,25.50
2019-04-28T16:22:44.559Z,22.97
2019-04-28T16:24:21.572Z,24.63
2019-04-28T16:25:57.532Z,22.00
2019-04-28T16:27:33.967Z,22.20
2019-04-28T16:29:10.614Z,21.83
2019-04-28T16:30:47.451Z,22.87
2019-04-28T16:32:23.867Z,22.67
2019-04-28T16:34:00.311Z,19.47
2019-04-28T16:35:36.816Z,19.10
2019-04-28T16:37:13.103Z,22.30
2019-04-28T16:38:49.767Z,19.50
2019-04-28T16:40:33.538Z,18.03
2019-04-28T16:42:11.270Z,17.63
2019-04-28T16:43:51.321Z,15.43
2019-04-28T16:45:27.885Z,15.77
2019-04-28T16:47:04.855Z,16.37
2019-04-28T16:48:41.770Z,19.63
2019-04-28T16:50:18.378Z,14.40
2019-04-28T16:51:54.713Z,16.80
2019-04-28T16:53:31.073Z,15.57
2019-04-28T16:55:15.902Z,16.20
2019-04-28T16:56:59.347Z,16.33
2019-04-28T16:58:49.447Z,18.80
2019-04-28T17:00:43.810Z,17.57
2019-04-28T17:02:24.804Z,18.70
2019-04-28T17:04:01.431Z,18.93
2019-04-28T17:05:37.794Z,18.90
2019-04-28T17:07:14.356Z,18.80
2019-04-28T17:08:50.619Z,17.97
2019-04-28T17:10:26.924Z,18.57
2019-04-28T17:12:03.417Z,18.93
2019-04-28T17:13:39.793Z,17.90
2019-04-28T17:15:16.401Z,18.50
2019-04-28T17:16:52.759Z,19.90
2019-04-28T17:18:29.171Z,19.30
2019-04-28T17:20:07.676Z,18.13
2019-04-28T17:21:44.205Z,19.40
2019-04-28T17:23:20.701Z,20.23
2019-04-28T17:24:57.141Z,19.40
2019-04-28T17:26:33.643Z,18.37
2019-04-28T17:28:12.291Z,16.73
2019-04-28T17:29:51.186Z,15.97
2019-04-28T17:31:27.873Z,14.93
2019-04-28T17:33:04.395Z,13.50
2019-04-28T17:34:40.797Z,13.63
2019-04-28T17:36:17.164Z,13.63
2019-04-28T17:38:06.066Z,13.37
2019-04-28T17:39:31.922Z,15.30
2019-04-28T17:41:08.737Z,14.37
2019-04-28T17:42:45.018Z,13.87
2019-04-28T17:44:21.458Z,14.03
2019-04-28T17:45:57.894Z,14.37
2019-04-28T17:47:34.397Z,15.17
2019-04-28T17:49:10.948Z,15.03
2019-04-28T17:50:47.329Z,16.40
2019-04-28T17:52:24.073Z,16.90
2019-04-28T17:54:00.440Z,17.17
2019-04-28T17:55:38.003Z,17.17
2019-04-28T17:57:14.431Z,18.60
2019-04-28T17:58:51.791Z,20.07
2019-04-28T18:00:32.268Z,17.90
2019-04-28T18:02:27.438Z,20.07
2019-04-28T18:04:06.931Z,20.00
2019-04-28T18:05:58.291Z,20.17
2019-04-28T18:07:36.306Z,21.30
2019-04-28T18:09:13.698Z,20.83
2019-04-28T18:10:51.096Z,21.63
2019-04-28T18:12:29.746Z,22.70
2019-04-28T18:14:06.252Z,23.20
2019-04-28T18:16:01.022Z,23.17
2019-04-28T18:17:37.387Z,24.10
2019-04-28T18:19:15.324Z,26.40
2019-04-28T18:20:51.745Z,27.47
2019-04-28T18:22:28.399Z,26.10
2019-04-28T18:24:04.800Z,25.23
2019-04-28T18:25:41.599Z,26.97
2019-04-28T18:27:17.923Z,26.23
2019-04-28T18:28:54.510Z,26.57
2019-04-28T18:30:32.520Z,29.13
2019-04-28T18:32:19.509Z,27.63
2019-04-28T18:34:13.813Z,27.30
2019-04-28T18:35:51.800Z,26.13
2019-04-28T18:37:46.477Z,29.50
2019-04-28T18:39:40.898Z,29.60
2019-04-28T18:41:18.912Z,30.00
2019-04-28T18:43:05.867Z,32.37
2019-04-28T18:44:42.257Z,29.90
2019-04-28T18:46:23.214Z,31.50
2019-04-28T18:47:59.648Z,32.00
2019-04-28T18:49:36.017Z,31.23
2019-04-28T18:51:12.519Z,31.73
2019-04-28T18:52:48.956Z,32.57
2019-04-28T18:54:25.389Z,32.33
2019-04-28T18:56:01.895Z,33.27
2019-04-28T18:57:38.217Z,32.97
2019-04-28T18:59:14.667Z,31.80
2019-04-28T19:00:52.739Z,33.47
2019-04-28T19:02:36.547Z,32.63
2019-04-28T19:04:12.898Z,30.80
2019-04-28T19:05:50.902Z,32.23
2019-04-28T19:07:44.970Z,31.50
2019-04-28T19:09:39.116Z,32.83
2019-04-28T19:11:20.121Z,29.40
2019-04-28T19:13:13.877Z,30.33
2019-04-28T19:15:08.272Z,28.10
2019-04-28T19:16:56.819Z,27.13
2019-04-28T19:18:34.672Z,28.20
2019-04-28T19:20:13.657Z,27.97
2019-04-28T19:21:56.735Z,25.73
2019-04-28T19:23:33.098Z,25.87
2019-04-28T19:25:09.910Z,25.73
2019-04-28T19:26:46.269Z,25.40
2019-04-28T19:28:22.548Z,23.57
2019-04-28T19:29:58.751Z,25.50
2019-04-28T19:31:35.208Z,22.67
2019-04-28T19:33:11.537Z,22.00
2019-04-28T19:34:47.796Z,19.67
2019-04-28T19:36:24.299Z,21.53
2019-04-28T19:38:00.616Z,19.07
2019-04-28T19:39:37.147Z,18.40
2019-04-28T19:41:13.007Z,18.37
2019-04-28T19:42:49.264Z,17.43
2019-04-28T19:44:25.562Z,17.53
2019-04-28T19:46:04.621Z,18.93
2019-04-28T19:47:41.450Z,18.70
2019-04-28T19:49:17.972Z,16.30
2019-04-28T19:50:54.246Z,17.50
2019-04-28T19:52:30.658Z,17.33
2019-04-28T19:54:07.538Z,18.33
2019-04-28T19:55:46.459Z,19.50
2019-04-28T19:57:26.940Z,18.53
2019-04-28T19:59:07.647Z,15.73
2019-04-28T20:00:48.543Z,14.10
2019-04-28T20:02:25.304Z,14.87
2019-04-28T20:04:04.822Z,15.80
2019-04-28T20:05:41.732Z,14.80
2019-04-28T20:07:18.110Z,14.43
2019-04-28T20:08:54.511Z,15.20
2019-04-28T20:10:31.039Z,15.10
2019-04-28T20:12:07.471Z,15.87
2019-04-28T20:13:43.735Z,15.30
2019-04-28T20:15:20.162Z,14.63
2019-04-28T20:16:56.428Z,14.13
2019-04-28T20:18:32.866Z,16.50
2019-04-28T20:20:09.904Z,13.43
2019-04-28T20:21:47.374Z,14.50
2019-04-28T20:23:23.773Z,14.87
2019-04-28T20:25:00.289Z,13.30
2019-04-28T20:26:36.639Z,14.43
2019-04-28T20:28:14.122Z,14.97
2019-04-28T20:29:50.479Z,13.37
2019-04-28T20:31:26.993Z,12.80
2019-04-28T20:33:07.278Z,12.33
2019-04-28T20:34:42.511Z,12.43
2019-04-28T20:36:35.556Z,12.13
2019-04-28T20:38:28.645Z,11.30
2019-04-28T20:40:08.612Z,12.33
2019-04-28T20:41:45.125Z,12.70
2019-04-28T20:43:23.651Z,12.70
2019-04-28T20:45:00.009Z,13.40
2019-04-28T20:46:36.228Z,13.40
2019-04-28T20:48:12.594Z,13.23
2019-04-28T20:49:48.544Z,12.37
2019-04-28T20:51:25.113Z,13.80
2019-04-28T20:53:01.621Z,12.20
2019-04-28T20:54:37.995Z,11.67
2019-04-28T20:56:14.423Z,10.10
2019-04-28T20:57:51.000Z,10.83
2019-04-28T20:59:27.479Z,10.73
2019-04-28T21:01:04.580Z,11.37
2019-04-28T21:02:40.838Z,10.50
2019-04-28T21:04:17.320Z,10.23
2019-04-28T21:05:53.759Z,10.30
2019-04-28T21:07:30.297Z,10.20